createdAt,value
2023-03-06T00:01:25.179Z,34.10
2023-03-06T00:02:57.793Z,41.35
2023-03-06T00:04:29.383Z,39.90
2023-03-06T00:06:01.078Z,39.13
2023-03-06T00:07:32.728Z,45.80
2023-03-06T00:09:04.661Z,46.08
2023-03-06T00:10:36.882Z,39.55
2023-03-06T00:12:08.784Z,35.33
2023-03-06T00:13:40.449Z,34.53
2023-03-06T00:15:13.524Z,41.30
2023-03-06T00:16:45.088Z,39.53
2023-03-06T00:18:16.990Z,41.70
2023-03-06T00:19:48.614Z,34.17
2023-03-06T00:21:20.209Z,38.67
2023-03-06T00:22:51.904Z,42.08
2023-03-06T00:24:23.588Z,38.75
2023-03-06T00:25:55.245Z,37.75
2023-03-06T00:27:26.806Z,42.20
2023-03-06T00:28:58.571Z,47.35
2023-03-06T00:30:30.816Z,42.40
2023-03-06T00:32:02.799Z,45.15
2023-03-06T00:33:34.456Z,42.13
2023-03-06T00:35:06.510Z,44.15
2023-03-06T00:36:38.077Z,46.33
2023-03-06T00:38:11.927Z,39.60
2023-03-06T00:39:43.611Z,48.15
2023-03-06T00:41:15.228Z,41.53
2023-03-06T00:42:47.524Z,37.95
2023-03-06T00:44:19.097Z,40.80
2023-03-06T00:45:50.754Z,42.95
2023-03-06T00:47:22.442Z,46.65
2023-03-06T00:48:54.070Z,45.80
2023-03-06T00:50:26.040Z,39.00
2023-03-06T00:51:57.717Z,41.38
2023-03-06T00:53:29.379Z,47.42
2023-03-06T00:55:00.910Z,38.42
2023-03-06T00:56:32.605Z,40.15
2023-03-06T00:58:04.174Z,43.42
2023-03-06T00:59:35.909Z,39.05
2023-03-06T01:01:07.898Z,38.42
2023-03-06T01:02:39.842Z,42.65
2023-03-06T01:04:12.107Z,44.35
2023-03-06T01:05:43.665Z,48.28
2023-03-06T01:07:15.270Z,47.22
2023-03-06T01:08:46.887Z,56.63
2023-03-06T01:10:18.507Z,46.95
2023-03-06T01:11:50.327Z,47.28
2023-03-06T01:13:22.001Z,46.83
2023-03-06T01:14:56.100Z,37.78
2023-03-06T01:16:27.970Z,37.60
2023-03-06T01:17:59.563Z,35.80
2023-03-06T01:19:31.118Z,37.17
2023-03-06T01:21:04.023Z,37.58
2023-03-06T01:22:35.601Z,37.88
2023-03-06T01:24:07.793Z,39.33
2023-03-06T01:25:39.406Z,37.47
2023-03-06T01:27:11.093Z,39.03
2023-03-06T01:28:42.803Z,37.80
2023-03-06T01:30:14.555Z,40.78
2023-03-06T01:31:46.356Z,36.40
2023-03-06T01:33:18.408Z,40.70
2023-03-06T01:34:50.197Z,36.85
2023-03-06T01:36:21.770Z,35.53
2023-03-06T01:37:53.397Z,35.67
2023-03-06T01:39:25.118Z,43.38
2023-03-06T01:40:56.921Z,38.25
2023-03-06T01:42:32.175Z,40.30
2023-03-06T01:44:04.225Z,37.47
2023-03-06T01:45:35.786Z,34.05
2023-03-06T01:47:07.499Z,43.67
2023-03-06T01:48:39.922Z,39.08
2023-03-06T01:50:12.680Z,37.95
2023-03-06T01:52:00.009Z,39.03
2023-03-06T01:53:32.184Z,41.05
2023-03-06T01:55:08.712Z,37.90
2023-03-06T01:56:44.900Z,40.38
2023-03-06T01:58:18.656Z,39.15
2023-03-06T01:59:56.288Z,39.22
2023-03-06T02:01:30.991Z,40.22
2023-03-06T02:03:05.711Z,37.25
2023-03-06T02:04:39.808Z,42.78
2023-03-06T02:06:11.983Z,41.88
2023-03-06T02:07:44.905Z,38.25
2023-03-06T02:09:18.547Z,39.60
2023-03-06T02:11:16.012Z,38.20
2023-03-06T02:12:49.189Z,37.58
2023-03-06T02:14:20.825Z,45.60
2023-03-06T02:15:52.483Z,39.88
2023-03-06T02:17:25.023Z,44.35
2023-03-06T02:19:00.673Z,45.05
2023-03-06T02:20:43.401Z,38.42
2023-03-06T02:22:15.004Z,47.22
2023-03-06T02:24:40.986Z,41.15
2023-03-06T02:26:13.768Z,39.75
2023-03-06T02:27:45.370Z,41.58
2023-03-06T02:29:26.369Z,31.38
2023-03-06T02:30:58.567Z,43.20
2023-03-06T02:32:30.259Z,35.55
2023-03-06T02:34:04.537Z,40.63
2023-03-06T02:35:39.196Z,41.40
2023-03-06T02:37:11.327Z,44.10
2023-03-06T02:38:50.197Z,41.13
2023-03-06T02:40:24.435Z,40.00
2023-03-06T02:41:56.075Z,38.25
2023-03-06T02:43:34.416Z,38.70
2023-03-06T02:45:10.671Z,37.08
2023-03-06T02:46:42.382Z,44.38
2023-03-06T02:48:16.755Z,38.92
2023-03-06T02:49:48.363Z,38.30
2023-03-06T02:51:20.046Z,40.03
2023-03-06T02:52:51.742Z,37.88
2023-03-06T02:54:23.414Z,39.33
2023-03-06T02:55:55.443Z,34.15
2023-03-06T02:57:27.196Z,46.90
2023-03-06T02:58:59.216Z,36.63
2023-03-06T03:00:31.493Z,39.72
2023-03-06T03:02:05.661Z,37.20
2023-03-06T03:03:38.654Z,39.97
2023-03-06T03:05:10.451Z,47.35
2023-03-06T03:06:46.077Z,44.40
2023-03-06T03:08:18.486Z,42.53
2023-03-06T03:09:50.539Z,41.95
2023-03-06T03:11:22.204Z,37.60
2023-03-06T03:12:53.955Z,38.90
2023-03-06T03:14:25.826Z,42.15
2023-03-06T03:16:03.159Z,35.55
2023-03-06T03:17:39.944Z,39.67
2023-03-06T03:19:11.609Z,40.42
2023-03-06T03:20:43.681Z,36.97
2023-03-06T03:22:15.529Z,43.78
2023-03-06T03:23:48.757Z,38.58
2023-03-06T03:25:21.570Z,41.28
2023-03-06T03:26:53.452Z,36.03
2023-03-06T03:28:27.181Z,43.08
2023-03-06T03:29:59.933Z,43.35
2023-03-06T03:31:32.922Z,36.35
2023-03-06T03:33:06.077Z,40.25
2023-03-06T03:34:37.792Z,36.20
2023-03-06T03:36:10.508Z,40.25
2023-03-06T03:37:45.932Z,41.40
2023-03-06T03:39:17.921Z,41.15
2023-03-06T03:40:49.672Z,36.67
2023-03-06T03:42:21.564Z,32.17
2023-03-06T03:43:54.323Z,33.15
2023-03-06T03:45:25.957Z,35.25
2023-03-06T03:46:57.601Z,39.00
2023-03-06T03:48:29.773Z,34.50
2023-03-06T03:50:02.021Z,34.55
2023-03-06T03:51:34.277Z,40.38
2023-03-06T03:53:05.868Z,36.20
2023-03-06T03:54:38.206Z,33.95
2023-03-06T03:56:10.642Z,38.75
2023-03-06T03:57:49.465Z,37.58
2023-03-06T03:59:21.192Z,41.47
2023-03-06T04:01:15.399Z,33.20
2023-03-06T04:02:47.335Z,36.13
2023-03-06T04:04:29.940Z,33.20
2023-03-06T04:06:01.727Z,36.45
2023-03-06T04:07:33.375Z,30.48
2023-03-06T04:09:05.696Z,33.70
2023-03-06T04:10:39.429Z,34.42
2023-03-06T04:12:12.554Z,31.75
2023-03-06T04:13:44.136Z,37.45
2023-03-06T04:15:15.825Z,34.78
2023-03-06T04:16:47.498Z,33.92
2023-03-06T04:18:20.821Z,34.88
2023-03-06T04:19:54.062Z,41.60
2023-03-06T04:21:26.037Z,28.67
2023-03-06T04:22:57.851Z,30.00
2023-03-06T04:24:29.544Z,28.02
2023-03-06T04:26:01.652Z,35.80
2023-03-06T04:27:33.878Z,37.78
2023-03-06T04:29:05.669Z,35.08
2023-03-06T04:30:37.789Z,28.38
2023-03-06T04:32:09.937Z,30.02
2023-03-06T04:33:41.735Z,35.33
2023-03-06T04:35:13.966Z,30.77
2023-03-06T04:36:57.559Z,31.98
2023-03-06T04:38:29.150Z,31.27
2023-03-06T04:40:00.757Z,35.97
2023-03-06T04:41:32.830Z,36.72
2023-03-06T04:43:05.245Z,33.88
2023-03-06T04:44:36.893Z,30.90
2023-03-06T04:46:10.977Z,33.42
2023-03-06T04:47:42.647Z,35.40
2023-03-06T04:49:14.294Z,30.50
2023-03-06T04:50:46.055Z,34.67
2023-03-06T04:52:17.614Z,34.97
2023-03-06T04:53:49.228Z,35.08
2023-03-06T04:55:21.025Z,35.88
2023-03-06T04:56:52.606Z,29.15
2023-03-06T04:58:24.308Z,38.13
2023-03-06T04:59:55.909Z,33.03
2023-03-06T05:01:27.810Z,34.85
2023-03-06T05:03:01.160Z,35.10
2023-03-06T05:04:32.775Z,40.80
2023-03-06T05:06:04.770Z,38.58
2023-03-06T05:07:36.532Z,31.48
2023-03-06T05:09:08.210Z,42.42
2023-03-06T05:10:39.847Z,40.67
2023-03-06T05:12:11.463Z,42.50
2023-03-06T05:13:43.181Z,40.00
2023-03-06T05:15:16.427Z,41.38
2023-03-06T05:16:48.124Z,37.58
2023-03-06T05:18:20.602Z,36.58
2023-03-06T05:19:52.283Z,33.28
2023-03-06T05:21:23.915Z,34.83
2023-03-06T05:22:55.539Z,32.50
2023-03-06T05:24:27.204Z,35.20
2023-03-06T05:25:58.954Z,28.60
2023-03-06T05:27:31.029Z,33.85
2023-03-06T05:29:02.696Z,24.35
2023-03-06T05:30:34.636Z,34.40
2023-03-06T05:32:07.093Z,29.55
2023-03-06T05:33:38.774Z,33.40
2023-03-06T05:35:17.422Z,31.50
2023-03-06T05:36:49.043Z,30.45
2023-03-06T05:38:20.651Z,31.45
2023-03-06T05:39:52.236Z,30.65
2023-03-06T05:41:23.918Z,36.83
2023-03-06T05:42:55.954Z,29.98
2023-03-06T05:44:35.158Z,32.05
2023-03-06T05:46:07.547Z,31.27
2023-03-06T05:47:39.148Z,28.23
2023-03-06T05:49:10.859Z,29.40
2023-03-06T05:50:42.494Z,29.75
2023-03-06T05:52:14.950Z,29.00
2023-03-06T05:53:46.803Z,29.48
2023-03-06T05:55:21.113Z,33.40
2023-03-06T05:56:52.710Z,30.98
2023-03-06T05:58:24.354Z,41.15
2023-03-06T05:59:55.963Z,29.85
2023-03-06T06:01:28.551Z,33.75
2023-03-06T06:03:01.871Z,32.15
2023-03-06T06:04:33.712Z,34.42
2023-03-06T06:06:06.935Z,33.15
2023-03-06T06:07:38.801Z,35.60
2023-03-06T06:09:13.493Z,38.17
2023-03-06T06:10:45.435Z,34.80
2023-03-06T06:12:17.057Z,28.15
2023-03-06T06:13:49.583Z,30.20
2023-03-06T06:15:21.184Z,34.83
2023-03-06T06:16:53.390Z,39.50
2023-03-06T06:18:25.144Z,38.40
2023-03-06T06:19:56.708Z,35.13
2023-03-06T06:21:28.228Z,36.47
2023-03-06T06:23:00.148Z,33.30
2023-03-06T06:24:32.207Z,30.33
2023-03-06T06:26:06.950Z,29.65
2023-03-06T06:27:38.558Z,37.22
2023-03-06T06:29:11.760Z,38.58
2023-03-06T06:30:43.361Z,30.05
2023-03-06T06:32:14.964Z,34.47
2023-03-06T06:33:46.567Z,37.50
2023-03-06T06:35:18.366Z,32.65
2023-03-06T06:36:53.302Z,32.20
2023-03-06T06:38:25.416Z,33.47
2023-03-06T06:39:57.184Z,32.60
2023-03-06T06:41:54.973Z,32.42
2023-03-06T06:43:21.750Z,35.15
2023-03-06T06:44:53.538Z,29.13
2023-03-06T06:47:09.594Z,31.50
2023-03-06T06:48:18.065Z,29.15
2023-03-06T06:49:51.214Z,30.75
2023-03-06T06:51:23.074Z,37.05
2023-03-06T06:52:54.721Z,35.38
2023-03-06T06:54:29.197Z,27.10
2023-03-06T06:56:00.850Z,37.25
2023-03-06T06:57:32.430Z,29.92
2023-03-06T06:59:16.148Z,34.97
2023-03-06T07:00:48.911Z,31.80
2023-03-06T07:02:20.750Z,33.47
2023-03-06T07:03:52.686Z,33.22
2023-03-06T07:05:24.358Z,30.23
2023-03-06T07:06:56.894Z,39.20
2023-03-06T07:08:28.483Z,39.75
2023-03-06T07:10:00.294Z,31.92
2023-03-06T07:11:31.917Z,32.60
2023-03-06T07:13:03.660Z,31.23
2023-03-06T07:14:35.921Z,30.60
2023-03-06T07:16:07.821Z,28.98
2023-03-06T07:17:39.482Z,30.90
2023-03-06T07:19:11.178Z,30.35
2023-03-06T07:20:42.883Z,33.28
2023-03-06T07:22:14.499Z,30.20
2023-03-06T07:23:46.151Z,31.77
2023-03-06T07:25:17.911Z,34.38
2023-03-06T07:26:49.553Z,29.40
2023-03-06T07:28:21.817Z,30.48
2023-03-06T07:29:53.431Z,36.95
2023-03-06T07:31:27.458Z,32.42
2023-03-06T07:33:00.144Z,36.45
2023-03-06T07:34:31.755Z,34.03
2023-03-06T07:36:03.707Z,34.25
2023-03-06T07:37:35.380Z,33.72
2023-03-06T07:39:10.265Z,29.50
2023-03-06T07:40:42.325Z,32.47
2023-03-06T07:42:14.452Z,30.88
2023-03-06T07:43:52.854Z,28.70
2023-03-06T07:45:24.906Z,30.38
2023-03-06T07:46:56.757Z,30.15
2023-03-06T07:48:28.585Z,28.80
2023-03-06T07:50:03.172Z,28.98
2023-03-06T07:51:34.835Z,32.45
2023-03-06T07:53:06.372Z,29.75
2023-03-06T07:54:38.026Z,31.83
2023-03-06T07:56:11.807Z,28.00
2023-03-06T07:57:43.506Z,28.33
2023-03-06T07:59:15.096Z,28.73
2023-03-06T08:00:46.727Z,29.05
2023-03-06T08:02:18.752Z,30.40
2023-03-06T08:03:50.631Z,27.45
2023-03-06T08:05:22.395Z,26.95
2023-03-06T08:06:57.455Z,22.52
2023-03-06T08:08:29.088Z,30.83
2023-03-06T08:10:01.133Z,28.90
2023-03-06T08:11:33.358Z,27.83
2023-03-06T08:13:05.084Z,30.23
2023-03-06T08:14:37.101Z,32.33
2023-03-06T08:16:09.878Z,42.78
2023-03-06T08:17:41.547Z,37.78
2023-03-06T08:19:13.168Z,27.55
2023-03-06T08:20:44.748Z,30.58
2023-03-06T08:22:16.423Z,26.45
2023-03-06T08:23:48.596Z,28.67
2023-03-06T08:25:20.233Z,29.90
2023-03-06T08:26:51.849Z,34.30
2023-03-06T08:28:23.454Z,24.70
2023-03-06T08:29:55.127Z,31.95
2023-03-06T08:31:29.976Z,29.98
2023-03-06T08:33:02.156Z,22.42
2023-03-06T08:34:33.905Z,25.17
2023-03-06T08:36:06.073Z,27.90
2023-03-06T08:37:37.726Z,25.92
2023-03-06T08:39:09.673Z,22.05
2023-03-06T08:40:41.509Z,27.58
2023-03-06T08:42:14.464Z,32.88
2023-03-06T08:43:46.144Z,25.60
2023-03-06T08:45:17.901Z,30.38
2023-03-06T08:46:49.566Z,29.40
2023-03-06T08:48:21.352Z,30.30
2023-03-06T08:49:52.983Z,30.70
2023-03-06T08:51:25.075Z,24.73
2023-03-06T08:52:56.757Z,24.83
2023-03-06T08:54:28.408Z,28.45
2023-03-06T08:56:00.075Z,33.63
2023-03-06T08:57:31.907Z,28.05
2023-03-06T08:59:05.523Z,27.88
2023-03-06T09:00:37.817Z,27.73
2023-03-06T09:02:13.016Z,27.58
2023-03-06T09:03:45.215Z,24.05
2023-03-06T09:05:17.104Z,34.83
2023-03-06T09:06:48.729Z,26.40
2023-03-06T09:08:20.457Z,27.02
2023-03-06T09:09:56.040Z,28.92
2023-03-06T09:11:28.537Z,25.10
2023-03-06T09:13:00.353Z,32.88
2023-03-06T09:14:32.279Z,27.10
2023-03-06T09:16:04.090Z,28.42
2023-03-06T09:17:35.791Z,26.58
2023-03-06T09:19:07.591Z,28.48
2023-03-06T09:20:39.270Z,24.10
2023-03-06T09:22:10.907Z,23.05
2023-03-06T09:23:42.625Z,31.38
2023-03-06T09:25:17.536Z,22.83
2023-03-06T09:26:51.406Z,28.45
2023-03-06T09:28:23.884Z,30.17
2023-03-06T09:29:56.640Z,24.70
2023-03-06T09:31:28.365Z,25.27
2023-03-06T09:33:00.106Z,23.30
2023-03-06T09:34:31.850Z,24.30
2023-03-06T09:36:04.377Z,23.13
2023-03-06T09:37:36.051Z,21.48
2023-03-06T09:39:09.068Z,26.17
2023-03-06T09:41:00.051Z,25.45
2023-03-06T09:42:34.378Z,25.92
2023-03-06T09:44:18.449Z,22.27
2023-03-06T09:45:50.296Z,22.20
2023-03-06T09:47:43.594Z,31.63
2023-03-06T09:49:33.982Z,20.40
2023-03-06T09:51:15.150Z,23.88
2023-03-06T09:52:58.953Z,26.88
2023-03-06T09:54:40.921Z,26.60
2023-03-06T09:56:18.454Z,26.77
2023-03-06T09:58:19.480Z,25.88
2023-03-06T09:59:55.488Z,25.48
2023-03-06T10:01:31.889Z,20.60
2023-03-06T10:03:09.849Z,21.95
2023-03-06T10:04:46.161Z,21.90
2023-03-06T10:06:24.076Z,22.25
2023-03-06T10:08:12.292Z,23.25
2023-03-06T10:09:50.701Z,27.10
2023-03-06T10:11:37.296Z,24.35
2023-03-06T10:13:20.990Z,22.38
2023-03-06T10:14:55.390Z,27.00
2023-03-06T10:16:27.010Z,24.35
2023-03-06T10:17:58.726Z,19.10
2023-03-06T10:19:36.852Z,22.98
2023-03-06T10:21:29.675Z,21.02
2023-03-06T10:23:20.766Z,22.52
2023-03-06T10:25:16.861Z,21.33
2023-03-06T10:26:59.793Z,19.98
2023-03-06T10:28:46.855Z,19.83
2023-03-06T10:30:24.206Z,18.42
2023-03-06T10:32:10.179Z,23.92
2023-03-06T10:33:52.809Z,28.20
2023-03-06T10:35:30.805Z,22.05
2023-03-06T10:37:19.613Z,22.83
2023-03-06T10:40:31.027Z,25.58
2023-03-06T10:42:02.590Z,20.35
2023-03-06T10:43:36.605Z,25.50
2023-03-06T10:45:15.428Z,20.02
2023-03-06T10:46:49.793Z,22.67
2023-03-06T10:48:26.946Z,23.60
2023-03-06T10:50:01.664Z,25.20
2023-03-06T10:51:35.569Z,28.23
2023-03-06T10:53:18.948Z,23.30
2023-03-06T10:54:50.505Z,25.30
2023-03-06T10:56:28.694Z,27.52
2023-03-06T10:58:35.565Z,28.48
2023-03-06T11:00:31.030Z,25.40
2023-03-06T11:02:29.025Z,23.42
2023-03-06T11:04:30.091Z,22.35
2023-03-06T11:06:11.534Z,25.77
2023-03-06T11:07:55.992Z,31.45
2023-03-06T11:09:27.622Z,23.38
2023-03-06T11:11:03.184Z,29.40
2023-03-06T11:12:36.168Z,22.60
2023-03-06T11:14:15.979Z,36.70
2023-03-06T11:16:01.755Z,56.67
2023-03-06T11:17:36.118Z,24.25
2023-03-06T11:19:20.189Z,18.52
2023-03-06T11:20:54.497Z,23.55
2023-03-06T11:22:26.175Z,18.77
2023-03-06T11:24:05.748Z,22.13
2023-03-06T11:25:42.980Z,29.45
2023-03-06T11:27:34.402Z,23.30
2023-03-06T11:29:10.588Z,22.35
2023-03-06T11:30:47.143Z,19.70
2023-03-06T11:32:26.750Z,18.55
2023-03-06T11:34:16.302Z,22.33
2023-03-06T11:35:57.898Z,18.08
2023-03-06T11:37:32.416Z,18.75
2023-03-06T11:39:25.478Z,18.23
2023-03-06T11:41:00.038Z,16.30
2023-03-06T11:42:39.247Z,14.48
2023-03-06T11:44:24.644Z,22.08
2023-03-06T11:45:56.934Z,17.65
2023-03-06T11:47:46.725Z,17.38
2023-03-06T11:49:33.146Z,18.50
2023-03-06T11:51:34.139Z,19.25
2023-03-06T11:53:10.624Z,14.80
2023-03-06T11:54:42.427Z,18.23
2023-03-06T11:56:20.314Z,18.83
2023-03-06T11:58:06.040Z,15.02
2023-03-06T11:59:50.899Z,17.88
2023-03-06T12:01:44.799Z,14.85
2023-03-06T12:03:34.880Z,14.57
2023-03-06T12:05:28.007Z,16.70
2023-03-06T12:07:04.613Z,15.98
2023-03-06T12:08:51.667Z,17.85
2023-03-06T12:10:34.997Z,20.95
2023-03-06T12:12:29.665Z,19.13
2023-03-06T12:14:19.936Z,13.35
2023-03-06T12:16:16.272Z,15.52
2023-03-06T12:17:59.145Z,19.98
2023-03-06T12:19:50.736Z,15.18
2023-03-06T12:21:40.764Z,17.25
2023-03-06T12:23:40.954Z,20.25
2023-03-06T12:25:35.154Z,23.77
2023-03-06T12:27:19.872Z,19.67
2023-03-06T12:29:22.020Z,17.85
2023-03-06T12:31:09.624Z,14.93
2023-03-06T12:32:47.510Z,15.48
2023-03-06T12:34:19.274Z,18.67
2023-03-06T12:36:04.080Z,16.10
2023-03-06T12:37:35.723Z,16.02
2023-03-06T12:39:16.943Z,14.68
2023-03-06T12:41:06.664Z,16.08
2023-03-06T12:43:00.970Z,19.35
2023-03-06T12:44:50.524Z,17.33
2023-03-06T12:46:25.309Z,19.25
2023-03-06T12:47:58.200Z,14.05
2023-03-06T12:49:33.319Z,16.50
2023-03-06T12:51:08.252Z,15.73
2023-03-06T12:52:41.059Z,19.63
2023-03-06T12:54:14.645Z,15.52
2023-03-06T12:55:48.782Z,18.42
2023-03-06T12:57:24.156Z,17.40
2023-03-06T12:58:57.627Z,15.80
2023-03-06T13:00:35.081Z,15.32
2023-03-06T13:02:25.169Z,16.92
2023-03-06T13:04:05.578Z,18.48
2023-03-06T13:06:04.160Z,17.17
2023-03-06T13:07:57.538Z,17.60
2023-03-06T13:09:29.140Z,16.38
2023-03-06T13:11:26.874Z,14.57
2023-03-06T13:13:01.265Z,17.15
2023-03-06T13:14:34.134Z,16.25
2023-03-06T13:16:32.882Z,16.60
2023-03-06T13:18:22.799Z,13.93
2023-03-06T13:20:13.312Z,18.23
2023-03-06T13:22:00.775Z,17.63
2023-03-06T13:23:32.418Z,15.70
2023-03-06T13:25:30.469Z,16.60
2023-03-06T13:27:04.569Z,17.80
2023-03-06T13:28:48.717Z,15.23
2023-03-06T13:30:23.368Z,13.70
2023-03-06T13:31:55.086Z,15.30
2023-03-06T13:33:26.799Z,15.82
2023-03-06T13:34:58.584Z,16.08
2023-03-06T13:36:31.133Z,15.15
2023-03-06T13:38:03.251Z,18.92
2023-03-06T13:39:55.825Z,16.67
2023-03-06T13:41:31.151Z,19.33
2023-03-06T13:43:09.331Z,19.88
2023-03-06T13:44:42.972Z,16.30
2023-03-06T13:46:27.044Z,20.92
2023-03-06T13:48:29.991Z,16.40
2023-03-06T13:49:52.390Z,16.15
2023-03-06T13:51:28.507Z,14.88
2023-03-06T13:53:00.256Z,17.92
2023-03-06T13:54:32.153Z,15.40
2023-03-06T13:56:28.282Z,14.60
2023-03-06T13:58:08.772Z,21.98
2023-03-06T14:00:11.925Z,18.60
2023-03-06T14:01:56.591Z,14.52
2023-03-06T14:03:33.968Z,17.67
2023-03-06T14:05:17.063Z,13.32
2023-03-06T14:06:52.485Z,14.82
2023-03-06T14:08:28.631Z,13.15
2023-03-06T14:10:03.205Z,14.48
2023-03-06T14:11:36.499Z,14.25
2023-03-06T14:13:14.995Z,13.63
2023-03-06T14:14:59.480Z,13.80
2023-03-06T14:16:49.495Z,14.40
2023-03-06T14:18:26.821Z,14.13
2023-03-06T14:20:05.600Z,17.40
2023-03-06T14:21:45.539Z,11.80
2023-03-06T14:23:25.965Z,16.08
2023-03-06T14:25:03.861Z,14.32
2023-03-06T14:26:46.394Z,17.10
2023-03-06T14:28:27.281Z,13.13
2023-03-06T14:30:11.884Z,14.27
2023-03-06T14:31:43.595Z,17.48
2023-03-06T14:33:27.398Z,14.70
2023-03-06T14:34:59.158Z,16.13
2023-03-06T14:36:44.485Z,14.90
2023-03-06T14:38:16.255Z,14.88
2023-03-06T14:39:48.333Z,15.68
2023-03-06T14:41:32.474Z,16.33
2023-03-06T14:43:20.338Z,16.30
2023-03-06T14:45:16.743Z,16.67
2023-03-06T14:46:49.828Z,18.42
2023-03-06T14:48:25.260Z,15.52
2023-03-06T14:50:26.015Z,14.00
2023-03-06T14:52:02.034Z,15.70
2023-03-06T14:53:34.907Z,16.08
2023-03-06T14:55:20.354Z,14.38
2023-03-06T14:56:56.573Z,13.50
2023-03-06T14:58:56.300Z,13.27
2023-03-06T15:00:36.053Z,16.67
2023-03-06T15:02:11.516Z,12.43
2023-03-06T15:03:50.529Z,15.38
2023-03-06T15:05:24.932Z,21.25
2023-03-06T15:06:58.280Z,18.08
2023-03-06T15:08:33.128Z,16.73
2023-03-06T15:10:17.964Z,16.23
2023-03-06T15:11:55.954Z,19.13
2023-03-06T15:13:29.786Z,14.43
2023-03-06T15:15:24.860Z,15.23
2023-03-06T15:16:56.697Z,15.05
2023-03-06T15:18:30.374Z,17.25
2023-03-06T15:20:02.318Z,16.13
2023-03-06T15:21:38.761Z,16.45
2023-03-06T15:23:34.205Z,15.35
2023-03-06T15:25:26.944Z,14.05
2023-03-06T15:27:02.606Z,14.63
2023-03-06T15:28:38.608Z,14.35
2023-03-06T15:30:30.621Z,15.13
2023-03-06T15:32:29.630Z,18.45
2023-03-06T15:34:07.860Z,13.50
2023-03-06T15:35:39.763Z,16.50
2023-03-06T15:37:27.678Z,14.00
2023-03-06T15:39:00.909Z,11.70
2023-03-06T15:40:33.015Z,14.77
2023-03-06T15:42:20.450Z,16.85
2023-03-06T15:43:52.278Z,15.82
2023-03-06T15:45:25.819Z,19.33
2023-03-06T15:47:08.522Z,18.92
2023-03-06T15:48:51.576Z,22.90
2023-03-06T15:50:29.066Z,14.73
2023-03-06T15:52:00.869Z,13.73
2023-03-06T15:53:32.744Z,19.90
2023-03-06T15:55:04.658Z,16.58
2023-03-06T15:56:40.166Z,16.38
2023-03-06T15:58:17.265Z,18.65
2023-03-06T15:59:49.507Z,15.93
2023-03-06T16:01:21.349Z,15.18
2023-03-06T16:02:53.520Z,16.50
2023-03-06T16:04:25.178Z,21.63
2023-03-06T16:05:57.073Z,18.25
2023-03-06T16:07:28.769Z,16.88
2023-03-06T16:09:00.362Z,15.85
2023-03-06T16:10:35.419Z,16.85
2023-03-06T16:12:15.209Z,18.65
2023-03-06T16:13:46.958Z,18.67
2023-03-06T16:15:25.684Z,16.45
2023-03-06T16:16:57.892Z,17.23
2023-03-06T16:18:31.552Z,18.05
2023-03-06T16:20:03.426Z,15.48
2023-03-06T16:21:35.266Z,17.13
2023-03-06T16:23:10.482Z,18.92
2023-03-06T16:24:43.366Z,16.48
2023-03-06T16:26:22.409Z,21.75
2023-03-06T16:27:59.667Z,19.05
2023-03-06T16:29:31.551Z,21.90
2023-03-06T16:31:03.506Z,16.00
2023-03-06T16:32:35.824Z,18.48
2023-03-06T16:34:07.601Z,17.83
2023-03-06T16:35:41.309Z,18.65
2023-03-06T16:37:14.045Z,17.27
2023-03-06T16:38:46.060Z,23.70
2023-03-06T16:40:22.686Z,19.08
2023-03-06T16:41:55.656Z,22.15
2023-03-06T16:43:27.370Z,18.95
2023-03-06T16:44:59.512Z,20.83
2023-03-06T16:46:31.457Z,20.52
2023-03-06T16:48:15.567Z,19.63
2023-03-06T16:49:47.389Z,21.77
2023-03-06T16:51:22.416Z,17.00
2023-03-06T16:52:55.989Z,19.85
2023-03-06T16:54:28.523Z,17.58
2023-03-06T16:56:00.429Z,22.35
2023-03-06T16:57:35.725Z,21.13
2023-03-06T16:59:07.694Z,18.75
2023-03-06T17:00:40.124Z,18.85
2023-03-06T17:02:15.160Z,18.50
2023-03-06T17:03:47.161Z,20.15
2023-03-06T17:05:19.954Z,19.48
2023-03-06T17:06:52.904Z,20.02
2023-03-06T17:08:24.683Z,19.15
2023-03-06T17:09:56.488Z,21.00
2023-03-06T17:11:28.286Z,19.90
2023-03-06T17:13:00.141Z,18.90
2023-03-06T17:14:33.620Z,18.40
2023-03-06T17:16:05.995Z,20.05
2023-03-06T17:17:38.384Z,21.88
2023-03-06T17:19:15.981Z,20.27
2023-03-06T17:20:51.897Z,22.33
2023-03-06T17:22:23.604Z,21.60
2023-03-06T17:23:56.304Z,20.05
2023-03-06T17:25:27.991Z,23.50
2023-03-06T17:26:59.784Z,21.05
2023-03-06T17:28:31.576Z,20.88
2023-03-06T17:30:04.798Z,18.55
2023-03-06T17:31:36.642Z,16.95
2023-03-06T17:33:08.377Z,18.27
2023-03-06T17:34:40.970Z,20.70
2023-03-06T17:36:14.748Z,18.45
2023-03-06T17:37:46.415Z,19.05
2023-03-06T17:39:19.794Z,20.05
2023-03-06T17:40:51.662Z,20.83
2023-03-06T17:42:23.535Z,18.27
2023-03-06T17:43:56.220Z,18.85
2023-03-06T17:45:29.571Z,20.33
2023-03-06T17:47:02.173Z,17.15
2023-03-06T17:48:34.905Z,21.25
2023-03-06T17:50:06.856Z,20.98
2023-03-06T17:51:39.077Z,18.65
2023-03-06T17:53:10.858Z,18.58
2023-03-06T17:54:42.725Z,17.17
2023-03-06T17:56:14.843Z,19.05
2023-03-06T17:57:46.760Z,15.38
2023-03-06T17:59:18.903Z,21.52
2023-03-06T18:00:50.691Z,24.77
2023-03-06T18:02:22.705Z,26.30
2023-03-06T18:03:54.529Z,22.65
2023-03-06T18:05:26.421Z,21.80
2023-03-06T18:06:58.344Z,19.30
2023-03-06T18:08:30.635Z,21.10
2023-03-06T18:10:02.473Z,21.27
2023-03-06T18:11:34.284Z,25.27
2023-03-06T18:13:06.462Z,18.50
2023-03-06T18:14:38.209Z,20.73
2023-03-06T18:16:12.566Z,20.40
2023-03-06T18:17:45.072Z,20.35
2023-03-06T18:19:17.755Z,22.98
2023-03-06T18:20:49.932Z,18.15
2023-03-06T18:22:21.783Z,22.73
2023-03-06T18:23:53.779Z,20.15
2023-03-06T18:25:25.484Z,18.38
2023-03-06T18:26:57.244Z,18.88
2023-03-06T18:28:30.845Z,22.67
2023-03-06T18:30:02.893Z,19.20
2023-03-06T18:31:37.457Z,22.60
2023-03-06T18:33:10.336Z,19.50
2023-03-06T18:34:42.134Z,20.38
2023-03-06T18:36:14.313Z,21.05
2023-03-06T18:37:46.056Z,23.75
2023-03-06T18:39:18.016Z,25.73
2023-03-06T18:40:49.727Z,31.38
2023-03-06T18:42:21.521Z,31.58
2023-03-06T18:43:55.493Z,34.70
2023-03-06T18:45:27.308Z,34.58
2023-03-06T18:46:59.288Z,35.47
2023-03-06T18:48:31.104Z,27.30
2023-03-06T18:50:03.249Z,29.55
2023-03-06T18:51:35.323Z,25.23
2023-03-06T18:53:07.172Z,22.85
2023-03-06T18:54:39.043Z,24.85
2023-03-06T18:56:16.973Z,23.90
2023-03-06T18:57:48.730Z,21.10
2023-03-06T18:59:21.131Z,24.23
2023-03-06T19:00:52.964Z,24.52
2023-03-06T19:02:24.813Z,29.48
2023-03-06T19:03:58.739Z,26.77
2023-03-06T19:05:30.452Z,26.60
2023-03-06T19:07:02.298Z,25.08
2023-03-06T19:08:35.856Z,31.20
2023-03-06T19:10:08.052Z,34.60
2023-03-06T19:11:40.493Z,42.88
2023-03-06T19:13:13.314Z,44.63
2023-03-06T19:14:45.012Z,51.20
2023-03-06T19:16:23.011Z,52.17
2023-03-06T19:17:54.926Z,52.22
2023-03-06T19:19:28.885Z,47.58
2023-03-06T19:21:11.597Z,37.03
2023-03-06T19:22:43.616Z,36.22
2023-03-06T19:24:15.487Z,31.83
2023-03-06T19:26:00.586Z,28.60
2023-03-06T19:27:32.691Z,22.40
2023-03-06T19:29:04.393Z,24.05
2023-03-06T19:30:40.220Z,27.73
2023-03-06T19:32:12.099Z,28.40
2023-03-06T19:33:44.377Z,29.13
2023-03-06T19:35:16.039Z,29.48
2023-03-06T19:36:50.399Z,22.83
2023-03-06T19:38:22.177Z,24.58
2023-03-06T19:39:53.876Z,24.10
2023-03-06T19:41:26.678Z,23.00
2023-03-06T19:42:58.401Z,22.70
2023-03-06T19:44:33.195Z,23.38
2023-03-06T19:46:05.214Z,25.73
2023-03-06T19:47:36.931Z,25.17
2023-03-06T19:49:12.162Z,22.95
2023-03-06T19:50:44.082Z,21.77
2023-03-06T19:52:16.933Z,29.65
2023-03-06T19:53:48.611Z,21.10
2023-03-06T19:55:20.715Z,21.52
2023-03-06T19:56:53.485Z,24.73
2023-03-06T19:58:25.194Z,21.48
2023-03-06T19:59:58.620Z,23.20
2023-03-06T20:01:30.776Z,27.70
2023-03-06T20:03:02.649Z,20.15
2023-03-06T20:04:35.260Z,21.88
2023-03-06T20:06:12.098Z,24.13
2023-03-06T20:07:44.008Z,25.15
2023-03-06T20:09:15.799Z,25.33
2023-03-06T20:10:47.593Z,27.70
2023-03-06T20:12:19.395Z,27.63
2023-03-06T20:13:51.627Z,24.42
2023-03-06T20:15:23.603Z,24.48
2023-03-06T20:16:55.339Z,25.48
2023-03-06T20:18:27.170Z,23.38
2023-03-06T20:19:58.931Z,20.75
2023-03-06T20:21:35.467Z,23.77
2023-03-06T20:23:07.280Z,20.15
2023-03-06T20:24:39.220Z,26.92
2023-03-06T20:26:14.453Z,23.40
2023-03-06T20:27:46.405Z,25.00
2023-03-06T20:29:18.162Z,22.00
2023-03-06T20:30:49.936Z,27.70